Addition Hills, Philippines

11:35 PM +08 on July 25, 2017 (GMT +0800)
Wack Wack Village, Mandaluyong | | Change Station

Elev 36 ft 14.59 °N, 121.06 °E | Updated 53 seconds ago

Rain
Rain
78.6 °F
Feels Like 82 °F
N
0.0
Wind Variable Wind from NW
Gusts 0.0 mph

Today
High -- | Low -- °F
--% Chance of Precip.
Yesterday
High -- | Low -- °F
Precip. -- in
Pressure 29.74 in
Visibility 3.7 miles
Clouds Scattered Clouds 2200 ft
Mostly Cloudy 9000 ft
Heat Index 82 °F
Dew Point 78 °F
Humidity 99%
Rainfall 0.28 in
Snow Depth Not available.
5:37 AM 6:27 PM
Waxing Crescent, 7% visible
METAR RPLL 251500Z 19007KT 150V220 6000 -SHRA SCT022 BKN090 26/26 Q1007 NOSIG RMK A2974
Pressure 29.74 in
Visibility 3.7 miles
Clouds Scattered Clouds 2200 ft
Mostly Cloudy 9000 ft
Heat Index 82 °F
Dew Point 78 °F
Humidity 99%
Rainfall 0.28 in
Snow Depth Not available.
5:37 AM 6:27 PM
Waxing Crescent, 7% visible
METAR RPLL 251500Z 19007KT 150V220 6000 -SHRA SCT022 BKN090 26/26 Q1007 NOSIG RMK A2974

Get Severe Weather Alerts

Thanks for signing up!

Be on the lookout for a verification email in your inbox.

You'll start receiving the daily forecast at 6 AM.

×

10-Day Weather Forecast

No radar image for this location.
×

Almanac

Astronomy

Jul. 25, 2017 Rise Set
Actual Time
Civil Twilight
Nautical Twilight
Astronomical Twilight
Moon
Length of Visible Light
Length of Day
Tomorrow will be .
, % of the Moon is Illuminated

Today's Extremes

Country Highs Country Lows

Community

WunderPhotos

Category 6

Welcome to Category 6. This is the collective home for Weather Underground's featured writeups by Dr. Jeff Masters (right), Bob Henson (left), Chris Burt, and other regular contributors.

Nearby

Air Quality

  Air Quality AQ Index Pollutant
Not available.

Snow Depth

Station Depth Elevation

Earthquake Activity

City Distance Mag. Time & Date
Minimum magnitude displayed is 2.5.

Coastal Water Temperatures

Place Temperature

Stations

Nearby Weather Stations

Station Location Temp. Windchill Dew Point Humidity Wind Precip. Elev Updated Type